createdAt,value
2022-10-14T00:02:01.331Z,15.90
2022-10-14T00:04:29.891Z,15.90
2022-10-14T00:06:57.145Z,15.90
2022-10-14T00:09:23.861Z,15.90
2022-10-14T00:11:50.651Z,15.90
2022-10-14T00:14:20.086Z,15.90
2022-10-14T00:16:48.813Z,15.90
2022-10-14T00:19:15.604Z,15.90
2022-10-14T00:21:44.752Z,15.90
2022-10-14T00:24:13.977Z,15.80
2022-10-14T00:26:41.767Z,15.90
2022-10-14T00:29:12.627Z,15.90
2022-10-14T00:31:39.473Z,15.90
2022-10-14T00:34:06.152Z,15.90
2022-10-14T00:36:32.870Z,15.90
2022-10-14T00:38:59.546Z,15.90
2022-10-14T00:41:28.949Z,15.90
2022-10-14T00:44:00.465Z,15.90
2022-10-14T00:46:30.374Z,15.90
2022-10-14T00:48:59.347Z,15.90
2022-10-14T00:51:26.467Z,15.90
2022-10-14T00:53:53.292Z,15.90
2022-10-14T00:56:24.790Z,16.00
2022-10-14T00:58:53.300Z,16.00
2022-10-14T01:01:20.258Z,16.10
2022-10-14T01:03:47.218Z,16.10
2022-10-14T01:06:46.061Z,16.20
2022-10-14T01:09:12.655Z,16.10
2022-10-14T01:11:42.299Z,16.10
2022-10-14T01:14:22.920Z,16.10
2022-10-14T01:16:58.846Z,16.10
2022-10-14T01:20:09.236Z,16.10
2022-10-14T01:22:49.476Z,16.00
2022-10-14T01:25:25.911Z,16.20
2022-10-14T01:28:07.347Z,16.20
2022-10-14T01:30:45.791Z,16.30
2022-10-14T01:33:27.962Z,16.30
2022-10-14T01:36:15.597Z,16.30
2022-10-14T01:38:51.555Z,16.20
2022-10-14T01:41:25.056Z,16.20
2022-10-14T01:43:55.335Z,16.10
2022-10-14T01:46:25.959Z,16.00
2022-10-14T01:48:58.070Z,16.00
2022-10-14T01:51:34.616Z,16.00
2022-10-14T01:54:09.489Z,16.00
2022-10-14T01:56:40.317Z,16.00
2022-10-14T01:59:11.834Z,16.00
2022-10-14T02:01:38.570Z,16.00
2022-10-14T02:04:18.761Z,15.90
2022-10-14T02:07:13.943Z,16.00
2022-10-14T02:10:01.085Z,16.00
2022-10-14T02:13:04.781Z,16.00
2022-10-14T02:16:02.048Z,16.00
2022-10-14T02:18:41.188Z,16.00
2022-10-14T02:21:28.070Z,16.00
2022-10-14T02:24:02.306Z,16.00
2022-10-14T02:26:30.955Z,16.00
2022-10-14T02:28:58.167Z,16.00
2022-10-14T02:31:27.812Z,16.10
2022-10-14T02:33:58.352Z,16.10
2022-10-14T02:36:26.841Z,16.10
2022-10-14T02:38:56.031Z,16.10
2022-10-14T02:41:27.247Z,16.10
2022-10-14T02:43:53.975Z,16.10
2022-10-14T02:46:21.805Z,16.10
2022-10-14T02:48:49.698Z,16.10
2022-10-14T02:51:16.833Z,16.20
2022-10-14T02:53:43.733Z,16.20
2022-10-14T02:56:13.279Z,16.20
2022-10-14T02:58:40.195Z,16.20
2022-10-14T03:01:07.394Z,16.20
2022-10-14T03:03:34.046Z,16.20
2022-10-14T03:06:00.748Z,16.20
2022-10-14T03:08:28.513Z,16.30
2022-10-14T03:10:55.212Z,16.30
2022-10-14T03:13:21.921Z,16.20
2022-10-14T03:15:50.483Z,16.20
2022-10-14T03:18:17.526Z,16.20
2022-10-14T03:20:44.928Z,16.20
2022-10-14T03:23:12.320Z,16.20
2022-10-14T03:25:39.694Z,16.20
2022-10-14T03:28:06.458Z,16.20
2022-10-14T03:30:33.129Z,16.20
2022-10-14T03:32:59.878Z,16.20
2022-10-14T03:35:26.561Z,16.20
2022-10-14T03:37:54.706Z,16.20
2022-10-14T03:40:22.957Z,16.20
2022-10-14T03:42:50.799Z,16.20
2022-10-14T03:45:17.638Z,16.10
2022-10-14T03:47:44.389Z,16.10
2022-10-14T03:50:11.051Z,16.10
2022-10-14T03:52:37.894Z,16.20
2022-10-14T03:55:05.010Z,16.20
2022-10-14T03:57:31.658Z,16.20
2022-10-14T03:59:58.399Z,16.20
2022-10-14T04:02:25.119Z,16.20
2022-10-14T04:04:51.810Z,16.30
2022-10-14T04:07:18.444Z,16.30
2022-10-14T04:09:45.160Z,16.30
2022-10-14T04:12:11.956Z,16.30
2022-10-14T04:14:38.711Z,16.40
2022-10-14T04:17:05.387Z,16.30
2022-10-14T04:19:32.084Z,16.40
2022-10-14T04:21:58.750Z,16.30
2022-10-14T04:24:25.605Z,16.40
2022-10-14T04:26:52.843Z,16.30
2022-10-14T04:29:19.728Z,16.30
2022-10-14T04:31:46.457Z,16.30
2022-10-14T04:34:13.261Z,16.30
2022-10-14T04:36:40.235Z,16.40
2022-10-14T04:39:06.951Z,16.40
2022-10-14T04:41:33.662Z,16.30
2022-10-14T04:44:00.324Z,16.40
2022-10-14T04:46:27.012Z,16.30
2022-10-14T04:48:54.375Z,16.40
2022-10-14T04:51:21.234Z,16.40
2022-10-14T04:53:47.960Z,16.40
2022-10-14T04:56:14.620Z,16.40
2022-10-14T04:58:41.303Z,16.40
2022-10-14T05:01:07.955Z,16.40
2022-10-14T05:03:34.676Z,16.40
2022-10-14T05:06:01.323Z,16.40
2022-10-14T05:08:28.074Z,16.40
2022-10-14T05:10:54.823Z,16.40
2022-10-14T05:13:21.660Z,16.50
2022-10-14T05:15:48.394Z,16.50
2022-10-14T05:18:15.179Z,16.40
2022-10-14T05:20:41.881Z,16.50
2022-10-14T05:23:08.505Z,16.50
2022-10-14T05:25:35.177Z,16.50
2022-10-14T05:28:01.863Z,16.50
2022-10-14T05:30:33.691Z,16.60
2022-10-14T05:33:01.395Z,16.60
2022-10-14T05:35:53.593Z,16.70
2022-10-14T05:38:14.960Z,16.70
2022-10-14T05:40:41.847Z,16.70
2022-10-14T05:43:08.605Z,16.80
2022-10-14T05:45:35.245Z,16.80
2022-10-14T05:48:02.958Z,16.80
2022-10-14T05:50:29.704Z,16.70
2022-10-14T05:52:56.368Z,16.80
2022-10-14T05:55:23.109Z,16.70
2022-10-14T05:57:49.959Z,16.70
2022-10-14T06:00:24.639Z,16.70
2022-10-14T06:02:52.400Z,16.70
2022-10-14T06:05:19.059Z,16.70
2022-10-14T06:07:45.687Z,16.70
2022-10-14T06:10:12.357Z,16.70
2022-10-14T06:12:39.100Z,16.70
2022-10-14T06:15:06.352Z,16.70
2022-10-14T06:17:33.063Z,16.60
2022-10-14T06:19:59.700Z,16.50
2022-10-14T06:22:28.756Z,16.50
2022-10-14T06:24:56.788Z,16.40
2022-10-14T06:27:25.051Z,16.30
2022-10-14T06:29:51.717Z,16.30
2022-10-14T06:32:18.477Z,16.30
2022-10-14T06:34:45.715Z,16.20
2022-10-14T06:37:12.443Z,16.20
2022-10-14T06:39:39.220Z,16.10
2022-10-14T06:42:09.478Z,16.10
2022-10-14T06:44:38.900Z,16.10
2022-10-14T06:47:07.162Z,16.10
2022-10-14T06:49:34.045Z,16.10
2022-10-14T06:52:00.685Z,16.00
2022-10-14T06:54:27.401Z,16.00
2022-10-14T06:56:54.160Z,16.00
2022-10-14T06:59:20.941Z,16.00
2022-10-14T07:01:47.836Z,16.00
2022-10-14T07:04:14.576Z,16.00
2022-10-14T07:06:41.991Z,16.00
2022-10-14T07:09:08.677Z,15.90
2022-10-14T07:11:35.530Z,16.00
2022-10-14T07:14:02.349Z,16.00
2022-10-14T07:16:29.427Z,16.00
2022-10-14T07:18:56.069Z,16.00
2022-10-14T07:21:22.865Z,15.90
2022-10-14T07:23:49.638Z,15.90
2022-10-14T07:26:16.296Z,16.00
2022-10-14T07:28:44.220Z,16.00
2022-10-14T07:31:11.596Z,16.00
2022-10-14T07:33:40.230Z,16.00
2022-10-14T07:36:09.840Z,16.00
2022-10-14T07:38:37.236Z,16.00
2022-10-14T07:41:08.001Z,16.00
2022-10-14T07:43:35.041Z,16.00
2022-10-14T07:46:05.519Z,16.00
2022-10-14T07:48:52.250Z,16.00
2022-10-14T07:51:20.488Z,16.00
2022-10-14T07:53:48.554Z,16.00
2022-10-14T07:56:15.190Z,16.00
2022-10-14T07:58:44.507Z,16.00
2022-10-14T08:01:11.477Z,16.00
2022-10-14T08:03:39.173Z,16.00
2022-10-14T08:06:06.092Z,16.00
2022-10-14T08:08:32.931Z,16.00
2022-10-14T08:11:12.490Z,16.00
2022-10-14T08:13:43.346Z,16.10
2022-10-14T08:16:20.444Z,16.10
2022-10-14T08:18:48.140Z,16.10
2022-10-14T08:21:15.923Z,16.10
2022-10-14T08:23:43.088Z,16.10
2022-10-14T08:26:24.074Z,16.10
2022-10-14T08:28:54.502Z,16.10
2022-10-14T08:31:21.825Z,16.10
2022-10-14T08:33:48.796Z,16.10
2022-10-14T08:36:19.232Z,16.10
2022-10-14T08:38:46.521Z,16.10
2022-10-14T08:41:13.201Z,16.20
2022-10-14T08:44:19.398Z,16.20
2022-10-14T08:46:52.665Z,16.20
2022-10-14T08:49:42.607Z,16.20
2022-10-14T08:52:22.304Z,16.20
2022-10-14T08:54:55.590Z,16.20
2022-10-14T08:57:27.010Z,16.20
2022-10-14T08:59:54.478Z,16.20
2022-10-14T09:02:31.007Z,16.30
2022-10-14T09:04:59.834Z,16.30
2022-10-14T09:07:26.737Z,16.30
2022-10-14T09:09:58.428Z,16.30
2022-10-14T09:12:28.780Z,16.30
2022-10-14T09:15:15.705Z,16.30
2022-10-14T09:18:22.892Z,16.30
2022-10-14T09:20:50.627Z,16.30
2022-10-14T09:23:18.781Z,16.30
2022-10-14T09:25:55.996Z,16.30
2022-10-14T09:28:41.189Z,16.30
2022-10-14T09:31:11.592Z,16.40
2022-10-14T09:33:42.273Z,16.40
2022-10-14T09:36:29.774Z,16.40
2022-10-14T09:39:05.368Z,16.40
2022-10-14T09:41:33.346Z,16.40
2022-10-14T09:44:22.071Z,16.40
2022-10-14T09:46:52.462Z,16.40
2022-10-14T09:49:29.228Z,16.50
2022-10-14T09:51:57.645Z,16.40
2022-10-14T09:54:28.100Z,16.50
2022-10-14T09:57:08.558Z,16.50
2022-10-14T10:00:01.080Z,16.50
2022-10-14T10:02:42.049Z,16.50
2022-10-14T10:05:22.096Z,16.50
2022-10-14T10:08:03.276Z,16.50
2022-10-14T10:10:30.876Z,16.50
2022-10-14T10:13:02.343Z,16.50
2022-10-14T10:15:29.616Z,16.60
2022-10-14T10:17:56.838Z,16.60
2022-10-14T10:20:33.633Z,16.60
2022-10-14T10:23:25.264Z,16.60
2022-10-14T10:25:52.517Z,16.60
2022-10-14T10:28:31.890Z,16.60
2022-10-14T10:31:03.741Z,16.70
2022-10-14T10:33:49.123Z,16.70
2022-10-14T10:36:26.357Z,16.70
2022-10-14T10:39:05.679Z,16.70
2022-10-14T10:42:14.895Z,16.70
2022-10-14T10:44:49.262Z,16.70
2022-10-14T10:47:42.186Z,16.70
2022-10-14T10:50:38.028Z,16.80
2022-10-14T10:53:25.098Z,16.80
2022-10-14T10:55:57.804Z,16.80
2022-10-14T10:58:28.087Z,16.80
2022-10-14T11:01:01.766Z,16.80
2022-10-14T11:03:48.601Z,16.80
2022-10-14T11:06:48.088Z,16.80
2022-10-14T11:09:41.534Z,16.90
2022-10-14T11:12:23.083Z,16.90
2022-10-14T11:15:26.163Z,16.90
2022-10-14T11:18:08.715Z,16.90
2022-10-14T11:20:46.748Z,16.90
2022-10-14T11:23:39.553Z,16.90
2022-10-14T11:26:28.994Z,16.90
2022-10-14T11:29:01.583Z,16.90
2022-10-14T11:31:47.192Z,16.90
2022-10-14T11:34:35.708Z,16.90
2022-10-14T11:37:38.011Z,17.00
2022-10-14T11:40:26.968Z,17.00
2022-10-14T11:43:39.415Z,17.00
2022-10-14T11:46:17.126Z,17.00
2022-10-14T11:48:57.136Z,17.10
2022-10-14T11:51:40.559Z,17.10
2022-10-14T11:54:18.385Z,17.00
2022-10-14T11:56:56.666Z,17.00
2022-10-14T11:59:37.769Z,17.00
2022-10-14T12:02:35.524Z,17.10
2022-10-14T12:05:06.495Z,17.10
2022-10-14T12:07:50.244Z,17.10
2022-10-14T12:10:26.912Z,17.10
2022-10-14T12:12:54.983Z,17.10
2022-10-14T12:15:26.729Z,17.10
2022-10-14T12:18:00.432Z,17.10
2022-10-14T12:20:45.832Z,17.10
2022-10-14T12:23:27.816Z,17.10
2022-10-14T12:26:10.710Z,17.10
2022-10-14T12:28:38.856Z,17.10
2022-10-14T12:31:35.282Z,17.20
2022-10-14T12:34:10.867Z,17.20
2022-10-14T12:36:39.229Z,17.20
2022-10-14T12:39:19.271Z,17.20
2022-10-14T12:41:56.028Z,17.20
2022-10-14T12:44:28.046Z,17.20
2022-10-14T12:46:54.714Z,17.20
2022-10-14T12:49:34.593Z,17.20
2022-10-14T12:52:05.807Z,17.30
2022-10-14T12:54:34.349Z,17.30
2022-10-14T12:57:04.768Z,17.30
2022-10-14T12:59:36.370Z,17.30
2022-10-14T13:02:21.481Z,17.30
2022-10-14T13:04:51.716Z,17.30
2022-10-14T13:10:41.716Z,17.30
2022-10-14T13:13:48.003Z,17.30
2022-10-14T13:16:23.608Z,17.30
2022-10-14T13:18:57.955Z,17.40
2022-10-14T13:21:36.424Z,17.30
2022-10-14T13:24:18.033Z,17.40
2022-10-14T13:26:54.624Z,17.40
2022-10-14T13:29:45.573Z,17.40
2022-10-14T13:32:35.511Z,17.40
2022-10-14T13:35:27.407Z,17.40
2022-10-14T13:43:08.582Z,17.40
2022-10-14T13:48:21.542Z,17.40
2022-10-14T13:50:56.058Z,17.40
2022-10-14T13:53:29.024Z,17.40
2022-10-14T13:55:57.550Z,17.40
2022-10-14T13:58:24.892Z,17.40
2022-10-14T14:01:00.589Z,17.40
2022-10-14T14:03:43.051Z,17.40
2022-10-14T14:06:23.065Z,17.40
2022-10-14T14:08:56.704Z,17.40
2022-10-14T14:11:26.591Z,17.40
2022-10-14T14:14:01.180Z,17.50
2022-10-14T14:16:41.296Z,17.50
2022-10-14T14:19:20.281Z,17.50
2022-10-14T14:21:47.030Z,17.50
2022-10-14T14:24:24.918Z,17.50
2022-10-14T14:26:55.659Z,17.50
2022-10-14T14:29:29.614Z,17.50
2022-10-14T14:32:07.200Z,17.50
2022-10-14T14:34:35.730Z,17.50
2022-10-14T14:37:17.251Z,17.50
2022-10-14T14:40:08.256Z,17.50
2022-10-14T14:45:12.629Z,17.50
2022-10-14T14:47:40.488Z,17.50
2022-10-14T14:50:35.422Z,17.50
2022-10-14T14:53:16.006Z,17.50
2022-10-14T14:55:44.821Z,17.50
2022-10-14T14:58:39.547Z,17.50
2022-10-14T15:01:07.563Z,17.50
2022-10-14T15:04:13.405Z,17.60
2022-10-14T15:06:38.821Z,17.50
2022-10-14T15:09:18.625Z,17.60
2022-10-14T15:14:47.703Z,17.60
2022-10-14T15:17:37.814Z,17.60
2022-10-14T15:20:04.560Z,17.60
2022-10-14T15:22:34.255Z,17.60
2022-10-14T15:25:30.521Z,17.60
2022-10-14T15:27:59.535Z,17.60
2022-10-14T15:30:27.762Z,17.60
2022-10-14T15:33:20.479Z,17.50
2022-10-14T15:35:58.152Z,17.50
2022-10-14T15:38:26.031Z,17.50
2022-10-14T15:40:53.242Z,17.40
2022-10-14T15:43:22.947Z,17.40
2022-10-14T15:46:11.676Z,17.40
2022-10-14T15:48:40.832Z,17.40
2022-10-14T15:51:07.917Z,17.40
2022-10-14T15:53:34.626Z,17.40
2022-10-14T15:56:01.365Z,17.30
2022-10-14T15:58:28.223Z,17.30
2022-10-14T16:00:54.942Z,17.30
2022-10-14T16:03:21.819Z,17.30
2022-10-14T16:05:48.535Z,17.30
2022-10-14T16:08:15.413Z,17.20
2022-10-14T16:10:45.811Z,17.20
2022-10-14T16:13:12.991Z,17.20
2022-10-14T16:15:49.168Z,17.10
2022-10-14T16:18:15.959Z,17.10
2022-10-14T16:20:42.936Z,17.10
2022-10-14T16:23:20.808Z,17.10
2022-10-14T16:25:49.540Z,17.00
2022-10-14T16:28:17.983Z,17.00
2022-10-14T16:30:50.149Z,17.00
2022-10-14T16:33:22.001Z,17.10
2022-10-14T16:35:53.877Z,17.10
2022-10-14T16:38:21.126Z,17.20
2022-10-14T16:40:59.119Z,17.20
2022-10-14T16:43:26.824Z,17.30
2022-10-14T16:45:57.179Z,17.30
2022-10-14T16:48:23.844Z,17.30
2022-10-14T16:50:51.559Z,17.30
2022-10-14T16:53:37.933Z,17.30
2022-10-14T16:56:29.853Z,17.40
2022-10-14T16:58:57.466Z,17.40
2022-10-14T17:01:24.488Z,17.40
2022-10-14T17:03:51.198Z,17.40
2022-10-14T17:06:23.132Z,17.40
2022-10-14T17:08:51.689Z,17.40
2022-10-14T17:11:18.917Z,17.40
2022-10-14T17:13:46.007Z,17.40
2022-10-14T17:16:12.757Z,17.40
2022-10-14T17:18:39.524Z,17.40
2022-10-14T17:21:08.989Z,17.40
2022-10-14T17:23:36.640Z,17.30
2022-10-14T17:26:05.303Z,17.40
2022-10-14T17:28:32.732Z,17.40
2022-10-14T17:31:03.730Z,17.40
2022-10-14T17:33:31.441Z,17.30
2022-10-14T17:36:00.209Z,17.40
2022-10-14T17:38:28.965Z,17.40
2022-10-14T17:41:06.810Z,17.30
2022-10-14T17:43:33.934Z,17.30
2022-10-14T17:48:42.299Z,17.40
2022-10-14T17:51:12.931Z,17.40
2022-10-14T17:53:40.403Z,17.40
2022-10-14T17:56:09.697Z,17.40
2022-10-14T17:58:36.507Z,17.40
2022-10-14T18:01:07.328Z,17.40
2022-10-14T18:03:35.047Z,17.40
2022-10-14T18:06:15.607Z,17.50
2022-10-14T18:08:44.043Z,17.50
2022-10-14T18:11:13.082Z,17.50
2022-10-14T18:16:14.382Z,17.50
2022-10-14T18:18:42.049Z,17.50
2022-10-14T18:21:09.830Z,17.50
2022-10-14T18:23:41.020Z,17.50
2022-10-14T18:26:14.372Z,17.50
2022-10-14T18:28:47.813Z,17.50
2022-10-14T18:31:20.289Z,17.40
2022-10-14T18:33:48.619Z,17.40
2022-10-14T18:36:22.742Z,17.40
2022-10-14T18:38:54.240Z,17.40
2022-10-14T18:41:21.642Z,17.40
2022-10-14T18:43:48.491Z,17.30
2022-10-14T18:46:21.173Z,17.30
2022-10-14T18:48:52.856Z,17.30
2022-10-14T18:51:25.447Z,17.20
2022-10-14T18:53:55.108Z,17.20
2022-10-14T18:56:24.651Z,17.20
2022-10-14T18:59:12.418Z,17.20
2022-10-14T19:01:40.425Z,17.20
2022-10-14T19:06:36.392Z,17.10
2022-10-14T19:09:05.110Z,17.10
2022-10-14T19:11:34.344Z,17.10
2022-10-14T19:14:03.750Z,17.10
2022-10-14T19:16:33.223Z,17.10
2022-10-14T19:19:11.550Z,17.00
2022-10-14T19:21:39.308Z,17.10
2022-10-14T19:24:08.283Z,17.00
2022-10-14T19:26:37.835Z,17.00
2022-10-14T19:29:09.065Z,17.00
2022-10-14T19:31:38.660Z,17.00
2022-10-14T19:34:07.372Z,17.00
2022-10-14T19:36:37.105Z,17.00
2022-10-14T19:39:05.283Z,17.00
2022-10-14T19:41:34.363Z,17.00
2022-10-14T19:44:01.476Z,16.90
2022-10-14T19:46:29.199Z,16.90
2022-10-14T19:49:07.299Z,16.90
2022-10-14T19:51:34.861Z,16.90
2022-10-14T19:54:02.428Z,16.90
2022-10-14T19:56:30.564Z,16.90
2022-10-14T19:58:59.041Z,16.90
2022-10-14T20:01:28.260Z,16.90
2022-10-14T20:03:55.825Z,16.80
2022-10-14T20:06:23.963Z,16.80
2022-10-14T20:08:51.427Z,16.80
2022-10-14T20:11:22.364Z,16.80
2022-10-14T20:13:49.133Z,16.80
2022-10-14T20:16:16.365Z,16.70
2022-10-14T20:18:43.092Z,16.70
2022-10-14T20:21:13.946Z,16.80
2022-10-14T20:23:41.379Z,16.70
2022-10-14T20:26:15.875Z,16.70
2022-10-14T20:28:42.977Z,16.70
2022-10-14T20:31:13.061Z,16.70
2022-10-14T20:33:40.084Z,16.70
2022-10-14T20:36:10.460Z,16.70
2022-10-14T20:38:40.828Z,16.70
2022-10-14T20:41:14.830Z,16.70
2022-10-14T20:43:42.846Z,16.70
2022-10-14T20:46:09.905Z,16.70
2022-10-14T20:48:39.459Z,16.70
2022-10-14T20:51:15.014Z,16.70
2022-10-14T20:53:42.363Z,16.60
2022-10-14T20:56:11.091Z,16.60
2022-10-14T20:58:38.050Z,16.60
2022-10-14T21:01:15.813Z,16.60
2022-10-14T21:03:44.315Z,16.60
2022-10-14T21:06:14.048Z,16.60
2022-10-14T21:08:41.008Z,16.60
2022-10-14T21:11:13.821Z,16.60
2022-10-14T21:13:47.084Z,16.60
2022-10-14T21:16:15.295Z,16.50
2022-10-14T21:18:46.404Z,16.50
2022-10-14T21:21:16.534Z,16.50
2022-10-14T21:23:44.141Z,16.40
2022-10-14T21:26:11.322Z,16.40
2022-10-14T21:28:38.136Z,16.40
2022-10-14T21:31:06.951Z,16.30
2022-10-14T21:33:34.318Z,16.30
2022-10-14T21:36:10.240Z,16.30
2022-10-14T21:38:37.090Z,16.30
2022-10-14T21:41:04.906Z,16.30
2022-10-14T21:43:34.543Z,16.30
2022-10-14T21:46:06.230Z,16.30
2022-10-14T21:48:33.612Z,16.30
2022-10-14T21:51:11.971Z,16.30
2022-10-14T21:53:40.268Z,16.20
2022-10-14T21:56:09.516Z,16.20
2022-10-14T21:58:37.050Z,16.20
2022-10-14T22:01:07.913Z,16.20
2022-10-14T22:03:35.633Z,16.20
2022-10-14T22:08:39.440Z,16.20
2022-10-14T22:11:07.044Z,16.20
2022-10-14T22:13:35.007Z,16.20
2022-10-14T22:16:01.726Z,16.20
2022-10-14T22:18:28.471Z,16.20
2022-10-14T22:21:03.713Z,16.10
2022-10-14T22:23:30.956Z,16.10
2022-10-14T22:26:02.583Z,16.10
2022-10-14T22:28:30.798Z,16.10
2022-10-14T22:31:04.760Z,16.10
2022-10-14T22:33:34.482Z,16.10
2022-10-14T22:36:18.196Z,16.10
2022-10-14T22:38:48.574Z,16.10
2022-10-14T22:41:17.469Z,16.10
2022-10-14T22:43:52.564Z,16.10
2022-10-14T22:46:21.785Z,16.00
2022-10-14T22:48:50.083Z,16.00
2022-10-14T22:51:18.790Z,16.00
2022-10-14T22:53:47.856Z,16.00
2022-10-14T22:56:17.598Z,16.00
2022-10-14T22:58:44.547Z,16.00
2022-10-14T23:01:13.777Z,15.90
2022-10-14T23:03:41.345Z,15.90
2022-10-14T23:06:10.606Z,15.90
2022-10-14T23:08:38.072Z,15.90
2022-10-14T23:11:06.165Z,15.90
2022-10-14T23:13:33.617Z,15.90
2022-10-14T23:16:03.291Z,15.80
2022-10-14T23:18:32.926Z,15.90
2022-10-14T23:21:06.410Z,15.90
2022-10-14T23:23:33.125Z,15.90
2022-10-14T23:25:59.856Z,15.80
2022-10-14T23:28:26.687Z,15.80
2022-10-14T23:30:53.456Z,15.80
2022-10-14T23:33:20.177Z,15.80
2022-10-14T23:35:46.809Z,15.80
2022-10-14T23:38:13.572Z,15.80
2022-10-14T23:40:40.361Z,15.80
2022-10-14T23:43:07.064Z,15.70
2022-10-14T23:45:33.872Z,15.80
2022-10-14T23:48:00.540Z,15.70
2022-10-14T23:50:27.222Z,15.70
2022-10-14T23:52:53.916Z,15.70
2022-10-14T23:55:20.560Z,15.70
2022-10-14T23:57:49.243Z,15.70
